Latest Weather Observations for Grove

IDT60901

Issued at 12:51 am EST Thursday 27 July 2017 (issued every 10 minutes, with the page automatically refreshed every 10 minutes)

About weather observations | Map of Hobart area stations | Latest observations for Hobart area | Other Formats
Station Details ID: 094220 Name: GROVE (RESEARCH STATION) Lat: -42.99 Lon: 147.07 Height: 65.0 m
Data from the previous 72 hours. | See also: Recent months at Grove
Date/Time
EST
Temp
°C
App
Temp
°C
Dew
Point
°C
Rel
Hum
%
Delta-T
°C
Wind Press
QNH
hPa
Press
MSL
hPa
Rain since
9am
mm
Dir  Spd
km/h
Gust
km/h
Spd
kts
Gust
kts
27/12:30am 1.7 -0.4 1.4 98 0.1 N 2 6 1 3 - - 0.8
27/12:00am 1.6 -0.9 1.6 100 0.0 E 4 11 2 6 - - 0.8
 
Date/Time
EST
Temp
°C
App
Temp
°C
Dew
Point
°C
Rel
Hum
%
Delta-T
°C
Wind Press
QNH
hPa
Press
MSL
hPa
Rain since
9am
mm
Dir  Spd
km/h
Gust
km/h
Spd
kts
Gust
kts
26/11:30pm 1.2 -0.6 0.9 98 0.1 CALM 0 7 0 4 - - 0.8
26/11:00pm 1.2 -1.8 0.9 98 0.1 NE 6 11 3 6 - - 0.8
26/10:30pm 1.1 -2.0 0.3 94 0.3 NE 6 9 3 5 - - 0.8
26/10:00pm 1.1 -2.1 0.6 96 0.2 NE 7 9 4 5 - - 0.8
26/09:30pm 1.2 -1.0 1.2 100 0.0 ENE 2 6 1 3 - - 0.8
26/09:00pm 1.9 -1.0 1.4 96 0.2 N 6 7 3 4 - - 0.8
26/08:30pm 2.3 -0.2 1.8 96 0.2 NNE 4 11 2 6 - - 0.8
26/08:00pm 2.6 0.2 2.1 96 0.2 N 4 7 2 4 - - 0.8
26/07:30pm 2.6 0.9 1.8 94 0.3 CALM 0 0 0 0 - - 0.8
26/07:00pm 3.1 -0.3 1.8 91 0.5 NNE 9 11 5 6 - - 0.8
26/06:30pm 3.4 1.7 1.9 90 0.6 CALM 0 0 0 0 - - 0.8
26/06:00pm 4.1 1.3 2.1 87 0.8 W 6 9 3 5 - - 0.8
26/05:30pm 5.8 2.7 1.3 73 1.8 SSE 7 9 4 5 - - 0.8
26/05:00pm 6.5 3.6 1.5 70 2.0 SSW 6 11 3 6 - - 0.8
26/04:30pm 7.5 3.5 0.7 62 2.7 WSW 11 19 6 10 - - 0.8
26/04:00pm 8.3 3.3 1.2 61 2.9 WSW 17 26 9 14 - - 0.8
26/03:30pm 8.1 4.7 1.8 64 2.6 SSW 9 17 5 9 - - 0.8
26/03:00pm 7.8 5.2 4.1 77 1.6 SW 7 13 4 7 - - 0.8
26/02:30pm 9.1 3.4 0.4 54 3.5 SW 20 32 11 17 - - 0.6
26/02:00pm 8.9 4.6 0.8 57 3.3 W 13 20 7 11 - - 0.6
26/01:30pm 7.9 4.7 3.2 72 2.0 SW 9 15 5 8 - - 0.6
26/01:00pm 6.4 1.3 2.8 78 1.5 WSW 19 32 10 17 - - 0.6
26/12:30pm 8.3 4.6 2.6 67 2.4 SSW 11 20 6 11 - - 0.0
26/12:00pm 8.2 4.9 2.2 66 2.5 S 9 19 5 10 - - 0.0
26/11:30am 7.6 3.8 1.7 66 2.4 S 11 17 6 9 - - 0.0
26/11:00am 9.3 6.2 3.8 68 2.4 W 9 13 5 7 - - 0.0
26/10:30am 7.2 4.7 3.9 79 1.4 SW 6 15 3 8 - - 0.0
26/10:00am 6.9 5.8 5.3 89 0.7 CALM 0 0 0 0 - - 0.0
26/09:30am 6.7 5.3 5.6 93 0.5 W 2 9 1 5 - - 0.0
26/09:00am 6.6 4.2 4.5 86 0.9 SSE 6 7 3 4 - - 8.0
26/08:30am 6.1 4.6 5.2 94 0.4 - 2 9 1 5 - - 8.0
26/08:00am 6.4 4.0 4.3 86 0.9 SW 6 9 3 5 - - 8.0
26/07:30am 6.5 4.9 4.7 88 0.8 WSW 2 15 1 8 - - 8.0
26/07:00am 6.4 3.7 5.5 94 0.4 SW 9 17 5 9 - - 8.0
26/06:30am 6.4 4.3 5.7 95 0.3 SW 6 11 3 6 - - 7.6
26/06:00am 6.2 4.1 5.8 97 0.2 W 6 11 3 6 - - 6.8
26/05:30am 5.9 3.5 5.4 97 0.2 N 7 9 4 5 - - 6.6
26/05:00am 6.0 3.8 5.1 94 0.4 S 6 9 3 5 - - 5.8
26/04:30am 6.3 3.4 4.7 89 0.7 WSW 9 20 5 11 - - 4.6
26/04:00am 6.9 4.0 6.7 99 0.1 WSW 11 17 6 9 - - 3.0
26/03:30am 6.9 5.0 6.5 97 0.2 SSW 6 7 3 4 - - 1.6
26/03:00am 7.1 5.0 6.7 97 0.2 S 7 11 4 6 - - 1.2
26/02:30am 6.8 5.1 6.1 95 0.3 S 4 7 2 4 - - 1.2
26/02:00am 6.9 5.0 6.5 97 0.2 NE 6 9 3 5 - - 1.2
26/01:30am 6.7 4.5 6.3 97 0.2 E 7 9 4 5 - - 1.2
26/01:00am 6.8 6.0 6.4 97 0.2 CALM 0 0 0 0 - - 1.0
26/12:30am 7.4 5.5 6.7 95 0.3 ENE 6 11 3 6 - - 1.0
26/12:00am 7.8 5.7 6.7 93 0.5 W 7 9 4 5 - - 0.6
 
Date/Time
EST
Temp
°C
App
Temp
°C
Dew
Point
°C
Rel
Hum
%
Delta-T
°C
Wind Press
QNH
hPa
Press
MSL
hPa
Rain since
9am
mm
Dir  Spd
km/h
Gust
km/h
Spd
kts
Gust
kts
25/11:30pm 8.6 7.3 6.0 84 1.2 S 2 6 1 3 - - 0.2
25/11:00pm 9.5 7.9 4.6 71 2.2 E 2 11 1 6 - - 0.0
25/10:30pm 10.4 7.2 3.3 61 3.1 NW 9 20 5 11 - - 0.0
25/10:00pm 10.1 6.5 3.2 62 3.0 SW 11 19 6 10 - - 0.0
25/09:30pm 10.6 6.2 2.7 58 3.4 NW 15 28 8 15 - - 0.0
25/09:00pm 10.7 6.3 2.9 58 3.4 NNW 15 22 8 12 - - 0.0
25/08:30pm 9.4 7.5 3.1 65 2.7 SW 2 6 1 3 - - 0.0
25/08:00pm 10.4 6.3 2.5 58 3.4 NW 13 26 7 14 - - 0.0
25/07:30pm 10.3 7.1 2.9 60 3.2 NW 9 11 5 6 - - 0.0
25/07:00pm 11.1 7.5 2.8 56 3.6 WNW 11 20 6 11 - - 0.0
25/06:30pm 10.9 7.6 2.6 56 3.6 W 9 13 5 7 - - 0.0
25/06:00pm 11.3 7.2 2.5 54 3.8 W 13 26 7 14 - - 0.0
25/05:30pm 12.1 8.1 2.7 52 4.1 W 13 30 7 16 - - 0.0
25/05:00pm 12.4 9.2 2.9 52 4.2 NW 9 20 5 11 - - 0.0
25/04:30pm 12.7 8.8 3.3 52 4.2 W 13 26 7 14 - - 0.0
25/04:00pm 13.0 8.5 1.9 47 4.8 W 15 33 8 18 - - 0.0
25/03:30pm 13.7 7.8 2.0 45 5.1 W 22 39 12 21 - - 0.0
25/03:00pm 13.8 8.5 2.8 47 4.9 W 20 35 11 19 - - 0.0
25/02:30pm 14.1 8.5 3.2 48 4.9 W 22 41 12 22 - - 0.0
25/02:14pm 14.1 7.3 3.2 48 4.9 WSW 28 46 15 25 - - 0.0
25/02:00pm 14.7 9.9 4.6 50 4.7 W 19 33 10 18 - - 0.0
25/01:30pm 14.8 10.8 5.0 52 4.6 W 15 24 8 13 - - 0.0
25/01:00pm 14.4 9.3 4.2 50 4.7 W 20 35 11 19 - - 0.0
25/12:30pm 14.0 8.2 4.5 52 4.4 WNW 24 35 13 19 - - 0.0
25/12:00pm 14.2 9.5 5.3 55 4.2 WNW 19 30 10 16 - - 0.0
25/11:30am 14.3 9.6 5.2 54 4.3 NW 19 30 10 16 - - 0.0
25/11:00am 13.6 11.5 6.5 62 3.4 W 7 11 4 6 - - 0.0
25/10:30am 11.9 9.1 6.9 71 2.4 E 11 13 6 7 - - 0.0
25/10:00am 10.5 8.6 6.7 77 1.8 NNE 6 11 3 6 - - 0.0
25/09:30am 8.7 6.5 6.3 85 1.1 E 7 13 4 7 - - 0.0
25/09:00am 8.0 5.3 5.6 85 1.1 E 9 17 5 9 - - 3.4
25/08:30am 6.2 3.4 5.3 94 0.4 ESE 9 15 5 8 - - 3.0
25/08:00am 9.3 4.0 3.0 65 2.7 NNW 20 26 11 14 - - 0.2
25/07:30am 8.7 5.2 3.4 69 2.3 NW 11 19 6 10 - - 0.2
25/07:00am 7.2 5.2 4.4 82 1.2 NNW 4 11 2 6 - - 0.2
25/06:30am 8.6 4.4 4.0 73 2.0 N 15 20 8 11 - - 0.2
25/06:00am 8.9 5.0 3.6 69 2.3 N 13 24 7 13 - - 0.0
25/05:30am 8.4 5.0 3.8 73 2.0 NNE 11 19 6 10 - - 0.0
25/05:00am 7.8 5.1 3.9 76 1.7 E 7 9 4 5 - - 0.0
25/04:30am 8.4 4.1 3.3 70 2.2 N 15 20 8 11 - - 0.0
25/04:00am 8.4 4.5 3.3 70 2.2 N 13 20 7 11 - - 0.0
25/03:30am 7.5 4.0 3.3 75 1.8 N 11 19 6 10 - - 0.0
25/03:00am 5.6 4.2 3.5 86 0.9 CALM 0 0 0 0 - - 0.0
25/02:30am 5.5 3.7 3.6 87 0.8 W 2 7 1 4 - - 0.0
25/02:00am 6.1 3.0 3.5 83 1.1 ENE 9 11 5 6 - - 0.0
25/01:30am 5.4 2.8 3.0 84 1.0 NE 6 11 3 6 - - 0.0
25/01:00am 5.3 2.7 3.1 86 0.9 E 6 9 3 5 - - 0.0
25/12:30am 6.0 4.1 2.9 80 1.3 WNW 2 9 1 5 - - 0.0
25/12:00am 6.5 3.7 1.8 72 1.9 W 6 7 3 4 - - 0.0
 
Date/Time
EST
Temp
°C
App
Temp
°C
Dew
Point
°C
Rel
Hum
%
Delta-T
°C
Wind Press
QNH
hPa
Press
MSL
hPa
Rain since
9am
mm
Dir  Spd
km/h
Gust
km/h
Spd
kts
Gust
kts
24/11:30pm 7.1 3.5 0.8 64 2.5 ENE 9 13 5 7 - - 0.0
24/11:00pm 6.9 3.8 1.2 67 2.3 ENE 7 9 4 5 - - 0.0
24/10:30pm 8.2 4.6 0.4 58 3.1 W 9 17 5 9 - - 0.0
24/10:00pm 8.0 4.4 0.5 59 3.0 NW 9 17 5 9 - - 0.0
24/09:30pm 8.1 1.9 0.0 56 3.2 WNW 22 32 12 17 - - 0.0
24/09:00pm 7.6 4.4 0.9 62 2.7 NNW 7 20 4 11 - - 0.0
24/08:30pm 8.0 4.3 0.2 58 3.1 NNW 9 19 5 10 - - 0.0
24/08:00pm 8.1 4.4 0.0 56 3.2 NNW 9 19 5 10 - - 0.0
24/07:30pm 8.2 4.6 0.4 58 3.1 NNW 9 17 5 9 - - 0.0
24/07:00pm 8.2 3.9 1.1 61 2.9 NNW 13 19 7 10 - - 0.0
24/06:30pm 8.1 4.5 0.6 59 3.0 NNW 9 15 5 8 - - 0.0
24/06:00pm 8.2 3.1 0.8 59 3.0 NNW 17 26 9 14 - - 0.0
24/05:30pm 7.8 4.2 0.8 61 2.8 W 9 17 5 9 - - 0.0
24/05:00pm 8.2 4.7 1.1 61 2.9 N 9 15 5 8 - - 0.0
24/04:30pm 8.5 4.9 0.8 58 3.1 NNW 9 17 5 9 - - 0.0
24/04:00pm 9.5 6.2 0.0 51 3.8 W 7 17 4 9 - - 0.0
24/03:30pm 10.3 5.5 0.5 50 4.0 W 15 26 8 14 - - 0.0
24/03:00pm 9.9 4.2 0.6 52 3.8 WNW 20 32 11 17 - - 0.0
24/02:30pm 10.7 4.9 0.1 48 4.3 WNW 20 39 11 21 - - 0.0
24/02:00pm 11.3 6.4 -0.6 43 4.8 W 15 22 8 12 - - 0.0
24/01:30pm 11.5 6.5 -1.0 42 5.0 W 15 22 8 12 - - 0.0
24/01:00pm 11.0 5.3 -0.4 45 4.6 WNW 19 37 10 20 - - 0.0
24/12:30pm 10.7 5.7 -0.9 44 4.6 W 15 22 8 12 - - 0.0
24/12:00pm 10.4 5.2 0.0 48 4.2 W 17 26 9 14 - - 0.0
24/11:30am 10.2 5.0 0.4 50 4.0 W 17 28 9 15 - - 0.0
24/11:02am 9.3 1.9 -0.6 50 3.9 WSW 28 48 15 26 - - 0.0
24/11:00am 9.4 2.4 -0.4 50 3.9 W 26 44 14 24 - - 0.0
24/10:34am 9.3 1.8 -1.3 47 4.1 W 28 48 15 26 - - 0.0
24/10:30am 9.7 3.1 -0.7 48 4.1 W 24 43 13 23 - - 0.0
24/10:00am 9.2 1.7 -1.4 47 4.1 WSW 28 46 15 25 - - 0.0
24/09:30am 8.7 1.2 -1.1 50 3.8 WSW 28 48 15 26 - - 0.0
24/09:00am 8.5 0.6 -1.7 48 3.9 W 30 54 16 29 - - 3.2
24/08:51am 8.5 0.9 -2.1 47 4.0 WSW 28 48 15 26 - - 3.2
24/08:30am 8.0 0.7 -2.5 47 3.9 WSW 26 39 14 21 - - 3.2
24/08:00am 7.1 1.2 -0.7 57 3.0 WSW 20 35 11 19 - - 3.2
24/07:30am 7.2 -0.3 -1.2 55 3.2 W 28 43 15 23 - - 3.2
24/07:00am 7.2 -0.7 -1.2 55 3.2 W 30 48 16 26 - - 3.2
24/06:53am 7.2 -0.3 -1.2 55 3.2 W 28 48 15 26 - - 3.2
24/06:30am 6.7 0.2 0.0 62 2.6 W 24 39 13 21 - - 3.2
24/06:00am 6.9 1.1 -0.3 60 2.8 W 20 39 11 21 - - 3.2
24/05:30am 6.9 1.0 -1.0 57 3.0 W 20 33 11 18 - - 3.2
24/05:00am 6.4 2.6 -1.0 59 2.8 WNW 9 22 5 12 - - 3.2
24/04:30am 6.5 2.0 -0.5 61 2.7 W 13 24 7 13 - - 3.2
24/04:00am 5.4 2.7 0.2 69 2.0 SE 4 7 2 4 - - 3.2
24/03:30am 3.8 0.8 0.9 81 1.1 E 6 9 3 5 - - 3.2
24/03:00am 3.7 1.4 0.6 80 1.2 ENE 2 7 1 4 - - 3.2
24/02:30am 3.0 0.3 0.6 84 0.9 NNE 4 7 2 4 - - 3.2
24/02:00am 3.0 0.7 0.3 82 1.0 S 2 9 1 5 - - 3.2
24/01:30am 2.8 -0.4 -0.2 81 1.1 WSW 6 17 3 9 - - 3.2
24/01:00am 0.9 -1.5 -0.2 92 0.4 N 2 11 1 6 - - 3.2

Latest Capital City Observations: Canberra | Sydney | Melbourne | Brisbane | Adelaide | Perth | Hobart | Darwin

Other Formats:

Comma delimited format used in spreadsheet applications
http://www.bom.gov.au/fwo/IDT60901/IDT60901.95977.axf

JavaScript Object Notation format (JSON) in row-major order
http://www.bom.gov.au/fwo/IDT60901/IDT60901.95977.json